sensor_id;sensor_type;location;lat;lon;timestamp;temperature;humidity
17827;DHT22;9038;48.208;16.308;2023-12-04T00:01:35;-1.40;99.90
17827;DHT22;9038;48.208;16.308;2023-12-04T00:03:37;-1.30;99.90
17827;DHT22;9038;48.208;16.308;2023-12-04T00:05:38;-1.10;99.90
17827;DHT22;9038;48.208;16.308;2023-12-04T00:07:40;-1.10;99.90
17827;DHT22;9038;48.208;16.308;2023-12-04T00:09:42;-1.10;99.90
17827;DHT22;9038;48.208;16.308;2023-12-04T00:11:44;-1.10;99.90
17827;DHT22;9038;48.208;16.308;2023-12-04T00:13:46;-1.20;99.90
17827;DHT22;9038;48.208;16.308;2023-12-04T00:15:49;-1.20;99.90
17827;DHT22;9038;48.208;16.308;2023-12-04T00:17:51;-1.20;99.90
17827;DHT22;9038;48.208;16.308;2023-12-04T00:19:52;-1.30;99.90
17827;DHT22;9038;48.208;16.308;2023-12-04T00:21:53;-1.30;99.90
17827;DHT22;9038;48.208;16.308;2023-12-04T00:23:55;-1.30;99.90
17827;DHT22;9038;48.208;16.308;2023-12-04T00:25:56;-1.30;99.90
17827;DHT22;9038;48.208;16.308;2023-12-04T00:27:58;-1.20;99.90
17827;DHT22;9038;48.208;16.308;2023-12-04T00:30:00;-1.20;99.90
17827;DHT22;9038;48.208;16.308;2023-12-04T00:32:05;-1.20;99.90
17827;DHT22;9038;48.208;16.308;2023-12-04T00:34:07;-1.30;99.90
17827;DHT22;9038;48.208;16.308;2023-12-04T00:36:10;-1.30;99.90
17827;DHT22;9038;48.208;16.308;2023-12-04T00:38:12;-1.20;99.90
17827;DHT22;9038;48.208;16.308;2023-12-04T00:40:14;-1.20;99.90
17827;DHT22;9038;48.208;16.308;2023-12-04T00:42:16;-1.30;99.90
17827;DHT22;9038;48.208;16.308;2023-12-04T00:44:17;-1.10;99.90
17827;DHT22;9038;48.208;16.308;2023-12-04T00:46:19;-1.20;99.90
17827;DHT22;9038;48.208;16.308;2023-12-04T00:48:22;-1.20;99.90
17827;DHT22;9038;48.208;16.308;2023-12-04T00:50:24;-1.20;99.90
17827;DHT22;9038;48.208;16.308;2023-12-04T00:52:26;-1.30;99.90
17827;DHT22;9038;48.208;16.308;2023-12-04T00:54:28;-1.30;99.90
17827;DHT22;9038;48.208;16.308;2023-12-04T00:56:30;-1.40;99.90
17827;DHT22;9038;48.208;16.308;2023-12-04T00:58:32;-1.30;99.90
17827;DHT22;9038;48.208;16.308;2023-12-04T01:00:33;-1.30;99.90
17827;DHT22;9038;48.208;16.308;2023-12-04T01:02:35;-1.30;99.90
17827;DHT22;9038;48.208;16.308;2023-12-04T01:04:39;-1.30;99.90
17827;DHT22;9038;48.208;16.308;2023-12-04T01:06:41;-1.40;99.90
17827;DHT22;9038;48.208;16.308;2023-12-04T01:08:43;-1.40;99.90
17827;DHT22;9038;48.208;16.308;2023-12-04T01:10:44;-1.50;99.90
17827;DHT22;9038;48.208;16.308;2023-12-04T01:12:46;-1.50;99.90
17827;DHT22;9038;48.208;16.308;2023-12-04T01:14:47;-1.50;99.90
17827;DHT22;9038;48.208;16.308;2023-12-04T01:16:49;-1.50;99.90
17827;DHT22;9038;48.208;16.308;2023-12-04T01:18:50;-1.50;99.90
17827;DHT22;9038;48.208;16.308;2023-12-04T01:20:54;-1.70;99.90
17827;DHT22;9038;48.208;16.308;2023-12-04T01:22:54;-1.80;99.90
17827;DHT22;9038;48.208;16.308;2023-12-04T01:24:56;-1.70;99.90
17827;DHT22;9038;48.208;16.308;2023-12-04T01:26:58;-1.70;99.90
17827;DHT22;9038;48.208;16.308;2023-12-04T01:29:00;-1.70;99.90
17827;DHT22;9038;48.208;16.308;2023-12-04T01:31:02;-1.70;99.90
17827;DHT22;9038;48.208;16.308;2023-12-04T01:33:05;-1.70;99.90
17827;DHT22;9038;48.208;16.308;2023-12-04T01:35:06;-1.60;99.90
17827;DHT22;9038;48.208;16.308;2023-12-04T01:37:10;-1.70;99.90
17827;DHT22;9038;48.208;16.308;2023-12-04T01:39:12;-1.70;99.90
17827;DHT22;9038;48.208;16.308;2023-12-04T01:41:14;-1.60;99.90
17827;DHT22;9038;48.208;16.308;2023-12-04T01:43:15;-1.60;99.90
17827;DHT22;9038;48.208;16.308;2023-12-04T01:45:17;-1.70;99.90
17827;DHT22;9038;48.208;16.308;2023-12-04T01:47:19;-1.70;99.90
17827;DHT22;9038;48.208;16.308;2023-12-04T01:49:21;-1.60;99.90
17827;DHT22;9038;48.208;16.308;2023-12-04T01:51:23;-1.70;99.90
17827;DHT22;9038;48.208;16.308;2023-12-04T01:53:26;-1.60;99.90
17827;DHT22;9038;48.208;16.308;2023-12-04T01:55:28;-1.70;99.90
17827;DHT22;9038;48.208;16.308;2023-12-04T01:59:32;-1.80;99.90
17827;DHT22;9038;48.208;16.308;2023-12-04T02:01:35;-1.80;99.90
17827;DHT22;9038;48.208;16.308;2023-12-04T02:03:37;-1.80;99.90
17827;DHT22;9038;48.208;16.308;2023-12-04T02:05:39;-1.80;99.90
17827;DHT22;9038;48.208;16.308;2023-12-04T02:07:41;-1.70;99.90
17827;DHT22;9038;48.208;16.308;2023-12-04T02:09:45;-1.90;99.90
17827;DHT22;9038;48.208;16.308;2023-12-04T02:11:47;-1.70;99.90
17827;DHT22;9038;48.208;16.308;2023-12-04T02:13:49;-1.80;99.90
17827;DHT22;9038;48.208;16.308;2023-12-04T02:15:53;-1.70;99.90
17827;DHT22;9038;48.208;16.308;2023-12-04T02:17:56;-1.80;99.90
17827;DHT22;9038;48.208;16.308;2023-12-04T02:19:58;-1.80;99.90
17827;DHT22;9038;48.208;16.308;2023-12-04T02:22:00;-1.90;99.90
17827;DHT22;9038;48.208;16.308;2023-12-04T02:24:03;-1.90;99.90
17827;DHT22;9038;48.208;16.308;2023-12-04T02:26:12;-2.00;99.90
17827;DHT22;9038;48.208;16.308;2023-12-04T02:30:22;-2.10;99.90
17827;DHT22;9038;48.208;16.308;2023-12-04T02:32:27;-1.90;99.90
17827;DHT22;9038;48.208;16.308;2023-12-04T02:34:32;-2.00;99.90
17827;DHT22;9038;48.208;16.308;2023-12-04T02:36:36;-2.00;99.90
17827;DHT22;9038;48.208;16.308;2023-12-04T02:40:43;-2.10;99.90
17827;DHT22;9038;48.208;16.308;2023-12-04T02:42:45;-2.10;99.90
17827;DHT22;9038;48.208;16.308;2023-12-04T02:44:46;-2.00;99.90
17827;DHT22;9038;48.208;16.308;2023-12-04T02:46:47;-2.10;99.90
17827;DHT22;9038;48.208;16.308;2023-12-04T02:48:49;-2.10;99.90
17827;DHT22;9038;48.208;16.308;2023-12-04T02:50:51;-2.10;99.90
17827;DHT22;9038;48.208;16.308;2023-12-04T02:52:53;-2.00;99.90
17827;DHT22;9038;48.208;16.308;2023-12-04T02:54:55;-2.10;99.90
17827;DHT22;9038;48.208;16.308;2023-12-04T02:59:00;-2.20;99.90
17827;DHT22;9038;48.208;16.308;2023-12-04T03:01:02;-2.00;99.90
17827;DHT22;9038;48.208;16.308;2023-12-04T03:03:04;-2.10;99.90
17827;DHT22;9038;48.208;16.308;2023-12-04T03:05:06;-2.00;99.90
17827;DHT22;9038;48.208;16.308;2023-12-04T03:07:08;-2.10;99.90
17827;DHT22;9038;48.208;16.308;2023-12-04T03:09:09;-2.00;99.90
17827;DHT22;9038;48.208;16.308;2023-12-04T03:11:11;-2.10;99.90
17827;DHT22;9038;48.208;16.308;2023-12-04T03:13:15;-2.10;99.90
17827;DHT22;9038;48.208;16.308;2023-12-04T03:15:17;-2.10;99.90
17827;DHT22;9038;48.208;16.308;2023-12-04T03:17:18;-2.30;99.90
17827;DHT22;9038;48.208;16.308;2023-12-04T03:19:20;-2.10;99.90
17827;DHT22;9038;48.208;16.308;2023-12-04T03:21:22;-2.20;99.90
17827;DHT22;9038;48.208;16.308;2023-12-04T03:23:24;-2.20;99.90
17827;DHT22;9038;48.208;16.308;2023-12-04T03:25:26;-2.00;99.90
17827;DHT22;9038;48.208;16.308;2023-12-04T03:27:28;-2.20;99.90
17827;DHT22;9038;48.208;16.308;2023-12-04T03:29:31;-2.20;99.90
17827;DHT22;9038;48.208;16.308;2023-12-04T03:31:33;-2.20;99.90
17827;DHT22;9038;48.208;16.308;2023-12-04T03:33:37;-2.30;99.90
17827;DHT22;9038;48.208;16.308;2023-12-04T03:35:38;-2.30;99.90
17827;DHT22;9038;48.208;16.308;2023-12-04T03:37:40;-2.40;99.90
17827;DHT22;9038;48.208;16.308;2023-12-04T03:39:42;-2.30;99.90
17827;DHT22;9038;48.208;16.308;2023-12-04T03:41:44;-2.30;99.90
17827;DHT22;9038;48.208;16.308;2023-12-04T03:43:46;-2.30;99.90
17827;DHT22;9038;48.208;16.308;2023-12-04T03:45:49;-2.30;99.90
17827;DHT22;9038;48.208;16.308;2023-12-04T03:47:50;-2.30;99.90
17827;DHT22;9038;48.208;16.308;2023-12-04T03:49:52;-2.30;99.90
17827;DHT22;9038;48.208;16.308;2023-12-04T03:51:53;-2.40;99.90
17827;DHT22;9038;48.208;16.308;2023-12-04T03:53:55;-2.40;99.90
17827;DHT22;9038;48.208;16.308;2023-12-04T03:55:58;-2.40;99.90
17827;DHT22;9038;48.208;16.308;2023-12-04T03:58:00;-2.30;99.90
17827;DHT22;9038;48.208;16.308;2023-12-04T04:00:02;-2.30;99.90
17827;DHT22;9038;48.208;16.308;2023-12-04T04:02:05;-2.40;99.90
17827;DHT22;9038;48.208;16.308;2023-12-04T04:04:07;-2.50;99.90
17827;DHT22;9038;48.208;16.308;2023-12-04T04:06:09;-2.50;99.90
17827;DHT22;9038;48.208;16.308;2023-12-04T04:08:11;-2.50;99.90
17827;DHT22;9038;48.208;16.308;2023-12-04T04:10:13;-2.30;99.90
17827;DHT22;9038;48.208;16.308;2023-12-04T04:12:15;-2.30;99.90
17827;DHT22;9038;48.208;16.308;2023-12-04T04:14:17;-2.30;99.90
17827;DHT22;9038;48.208;16.308;2023-12-04T04:16:18;-2.40;99.90
17827;DHT22;9038;48.208;16.308;2023-12-04T04:18:21;-2.20;99.90
17827;DHT22;9038;48.208;16.308;2023-12-04T04:20:23;-2.20;99.90
17827;DHT22;9038;48.208;16.308;2023-12-04T04:22:25;-2.40;99.90
17827;DHT22;9038;48.208;16.308;2023-12-04T04:24:26;-2.30;99.90
17827;DHT22;9038;48.208;16.308;2023-12-04T04:26:28;-2.40;99.90
17827;DHT22;9038;48.208;16.308;2023-12-04T04:28:29;-2.40;99.90
17827;DHT22;9038;48.208;16.308;2023-12-04T04:30:31;-2.40;99.90
17827;DHT22;9038;48.208;16.308;2023-12-04T04:32:33;-2.50;99.90
17827;DHT22;9038;48.208;16.308;2023-12-04T04:34:36;-2.40;99.90
17827;DHT22;9038;48.208;16.308;2023-12-04T04:36:38;-2.40;99.90
17827;DHT22;9038;48.208;16.308;2023-12-04T04:38:40;-2.50;99.90
17827;DHT22;9038;48.208;16.308;2023-12-04T04:40:42;-2.50;99.90
17827;DHT22;9038;48.208;16.308;2023-12-04T04:42:45;-2.50;99.90
17827;DHT22;9038;48.208;16.308;2023-12-04T04:44:48;-2.40;99.90
17827;DHT22;9038;48.208;16.308;2023-12-04T04:46:48;-2.30;99.90
17827;DHT22;9038;48.208;16.308;2023-12-04T04:48:50;-2.30;99.90
17827;DHT22;9038;48.208;16.308;2023-12-04T04:50:53;-2.40;99.90
17827;DHT22;9038;48.208;16.308;2023-12-04T04:52:55;-2.30;99.90
17827;DHT22;9038;48.208;16.308;2023-12-04T04:54:57;-2.50;99.90
17827;DHT22;9038;48.208;16.308;2023-12-04T04:56:59;-2.50;99.90
17827;DHT22;9038;48.208;16.308;2023-12-04T04:59:01;-2.30;99.90
17827;DHT22;9038;48.208;16.308;2023-12-04T05:01:03;-2.50;99.90
17827;DHT22;9038;48.208;16.308;2023-12-04T05:03:05;-2.40;99.90
17827;DHT22;9038;48.208;16.308;2023-12-04T05:05:06;-2.50;99.90
17827;DHT22;9038;48.208;16.308;2023-12-04T05:07:10;-2.50;99.90
17827;DHT22;9038;48.208;16.308;2023-12-04T05:09:12;-2.40;99.90
17827;DHT22;9038;48.208;16.308;2023-12-04T05:11:14;-2.50;99.90
17827;DHT22;9038;48.208;16.308;2023-12-04T05:13:16;-2.50;99.90
17827;DHT22;9038;48.208;16.308;2023-12-04T05:15:18;-2.50;99.90
17827;DHT22;9038;48.208;16.308;2023-12-04T05:17:20;-2.30;99.90
17827;DHT22;9038;48.208;16.308;2023-12-04T05:19:22;-2.40;99.90
17827;DHT22;9038;48.208;16.308;2023-12-04T05:21:23;-2.40;99.90
17827;DHT22;9038;48.208;16.308;2023-12-04T05:23:27;-2.40;99.90
17827;DHT22;9038;48.208;16.308;2023-12-04T05:25:28;-2.40;99.90
17827;DHT22;9038;48.208;16.308;2023-12-04T05:27:30;-2.50;99.90
17827;DHT22;9038;48.208;16.308;2023-12-04T05:29:32;-2.50;99.90
17827;DHT22;9038;48.208;16.308;2023-12-04T05:31:34;-2.40;99.90
17827;DHT22;9038;48.208;16.308;2023-12-04T05:33:36;-2.40;99.90
17827;DHT22;9038;48.208;16.308;2023-12-04T05:35:38;-2.40;99.90
17827;DHT22;9038;48.208;16.308;2023-12-04T05:37:39;-2.50;99.90
17827;DHT22;9038;48.208;16.308;2023-12-04T05:39:42;-2.40;99.90
17827;DHT22;9038;48.208;16.308;2023-12-04T05:41:43;-2.30;99.90
17827;DHT22;9038;48.208;16.308;2023-12-04T05:43:45;-2.40;99.90
17827;DHT22;9038;48.208;16.308;2023-12-04T05:45:47;-2.10;99.90
17827;DHT22;9038;48.208;16.308;2023-12-04T05:47:49;-2.40;99.90
17827;DHT22;9038;48.208;16.308;2023-12-04T05:49:50;-2.20;99.90
17827;DHT22;9038;48.208;16.308;2023-12-04T05:51:52;-2.30;99.90
17827;DHT22;9038;48.208;16.308;2023-12-04T05:53:54;-2.40;99.90
17827;DHT22;9038;48.208;16.308;2023-12-04T05:55:57;-2.40;99.90
17827;DHT22;9038;48.208;16.308;2023-12-04T05:57:59;-2.30;99.90
17827;DHT22;9038;48.208;16.308;2023-12-04T06:00:03;-2.20;99.90
17827;DHT22;9038;48.208;16.308;2023-12-04T06:02:06;-2.40;99.90
17827;DHT22;9038;48.208;16.308;2023-12-04T06:04:07;-2.30;99.90
17827;DHT22;9038;48.208;16.308;2023-12-04T06:06:09;-2.30;99.90
17827;DHT22;9038;48.208;16.308;2023-12-04T06:08:10;-2.30;99.90
17827;DHT22;9038;48.208;16.308;2023-12-04T06:10:12;-2.40;99.90
17827;DHT22;9038;48.208;16.308;2023-12-04T06:12:14;-2.30;99.90
17827;DHT22;9038;48.208;16.308;2023-12-04T06:14:16;-2.40;99.90
17827;DHT22;9038;48.208;16.308;2023-12-04T06:16:17;-2.40;99.90
17827;DHT22;9038;48.208;16.308;2023-12-04T06:18:19;-2.30;99.90
17827;DHT22;9038;48.208;16.308;2023-12-04T06:20:22;-2.50;99.90
17827;DHT22;9038;48.208;16.308;2023-12-04T06:22:23;-2.40;99.90
17827;DHT22;9038;48.208;16.308;2023-12-04T06:24:25;-2.50;99.90
17827;DHT22;9038;48.208;16.308;2023-12-04T06:26:27;-2.50;99.90
17827;DHT22;9038;48.208;16.308;2023-12-04T06:28:33;-2.40;99.90
17827;DHT22;9038;48.208;16.308;2023-12-04T06:30:35;-2.50;99.90
17827;DHT22;9038;48.208;16.308;2023-12-04T06:32:37;-2.50;99.90
17827;DHT22;9038;48.208;16.308;2023-12-04T06:34:40;-2.50;99.90
17827;DHT22;9038;48.208;16.308;2023-12-04T06:36:41;-2.40;99.90
17827;DHT22;9038;48.208;16.308;2023-12-04T06:38:47;-2.50;99.90
17827;DHT22;9038;48.208;16.308;2023-12-04T06:40:54;-2.50;99.90
17827;DHT22;9038;48.208;16.308;2023-12-04T06:42:56;-2.40;99.90
17827;DHT22;9038;48.208;16.308;2023-12-04T06:45:00;-2.40;99.90
17827;DHT22;9038;48.208;16.308;2023-12-04T06:47:03;-2.40;99.90
17827;DHT22;9038;48.208;16.308;2023-12-04T06:49:06;-2.40;99.90
17827;DHT22;9038;48.208;16.308;2023-12-04T06:51:08;-2.30;99.90
17827;DHT22;9038;48.208;16.308;2023-12-04T06:53:09;-2.30;99.90
17827;DHT22;9038;48.208;16.308;2023-12-04T06:55:11;-2.20;99.90
17827;DHT22;9038;48.208;16.308;2023-12-04T06:57:13;-2.10;99.90
17827;DHT22;9038;48.208;16.308;2023-12-04T06:59:15;-1.80;99.90
17827;DHT22;9038;48.208;16.308;2023-12-04T07:01:17;-2.10;99.90
17827;DHT22;9038;48.208;16.308;2023-12-04T07:03:19;-2.10;99.90
17827;DHT22;9038;48.208;16.308;2023-12-04T07:05:21;-2.10;99.90
17827;DHT22;9038;48.208;16.308;2023-12-04T07:07:23;-2.10;99.90
17827;DHT22;9038;48.208;16.308;2023-12-04T07:09:24;-2.10;99.90
17827;DHT22;9038;48.208;16.308;2023-12-04T07:11:25;-2.10;99.90
17827;DHT22;9038;48.208;16.308;2023-12-04T07:13:27;-2.00;99.90
17827;DHT22;9038;48.208;16.308;2023-12-04T07:15:29;-2.00;99.90
17827;DHT22;9038;48.208;16.308;2023-12-04T07:17:32;-2.00;99.90
17827;DHT22;9038;48.208;16.308;2023-12-04T07:19:34;-1.90;99.90
17827;DHT22;9038;48.208;16.308;2023-12-04T07:21:36;-2.00;99.90
17827;DHT22;9038;48.208;16.308;2023-12-04T07:23:39;-1.90;99.90
17827;DHT22;9038;48.208;16.308;2023-12-04T07:25:41;-1.70;99.90
17827;DHT22;9038;48.208;16.308;2023-12-04T07:27:43;-1.70;99.90
17827;DHT22;9038;48.208;16.308;2023-12-04T07:29:45;-1.70;99.90
17827;DHT22;9038;48.208;16.308;2023-12-04T07:31:46;-1.60;99.90
17827;DHT22;9038;48.208;16.308;2023-12-04T07:33:49;-1.70;99.90
17827;DHT22;9038;48.208;16.308;2023-12-04T07:35:53;-1.80;99.90
17827;DHT22;9038;48.208;16.308;2023-12-04T07:37:55;-1.70;99.90
17827;DHT22;9038;48.208;16.308;2023-12-04T07:39:57;-2.00;99.90
17827;DHT22;9038;48.208;16.308;2023-12-04T07:41:59;-2.00;99.90
17827;DHT22;9038;48.208;16.308;2023-12-04T07:44:08;-2.10;99.90
17827;DHT22;9038;48.208;16.308;2023-12-04T07:46:10;-2.00;99.90
17827;DHT22;9038;48.208;16.308;2023-12-04T07:48:11;-2.00;99.90
17827;DHT22;9038;48.208;16.308;2023-12-04T07:50:14;-2.10;99.90
17827;DHT22;9038;48.208;16.308;2023-12-04T07:52:16;-2.10;99.90
17827;DHT22;9038;48.208;16.308;2023-12-04T07:54:19;-2.10;99.90
17827;DHT22;9038;48.208;16.308;2023-12-04T07:56:20;-1.90;99.90
17827;DHT22;9038;48.208;16.308;2023-12-04T07:58:22;-1.90;99.90
17827;DHT22;9038;48.208;16.308;2023-12-04T08:00:24;-1.90;99.90
17827;DHT22;9038;48.208;16.308;2023-12-04T08:02:27;-2.10;99.90
17827;DHT22;9038;48.208;16.308;2023-12-04T08:04:29;-1.80;99.90
17827;DHT22;9038;48.208;16.308;2023-12-04T08:06:34;-1.90;99.90
17827;DHT22;9038;48.208;16.308;2023-12-04T08:08:37;-1.90;99.90
17827;DHT22;9038;48.208;16.308;2023-12-04T08:10:40;-1.50;99.90
17827;DHT22;9038;48.208;16.308;2023-12-04T08:12:44;-1.70;99.90
17827;DHT22;9038;48.208;16.308;2023-12-04T08:14:47;-1.80;99.90
17827;DHT22;9038;48.208;16.308;2023-12-04T08:16:50;-1.80;99.90
17827;DHT22;9038;48.208;16.308;2023-12-04T08:18:53;-1.60;99.90
17827;DHT22;9038;48.208;16.308;2023-12-04T08:21:00;-1.60;99.90
17827;DHT22;9038;48.208;16.308;2023-12-04T08:23:02;-1.60;99.90
17827;DHT22;9038;48.208;16.308;2023-12-04T08:25:05;-1.70;99.90
17827;DHT22;9038;48.208;16.308;2023-12-04T08:27:08;-1.80;99.90
17827;DHT22;9038;48.208;16.308;2023-12-04T08:29:09;-1.70;99.90
17827;DHT22;9038;48.208;16.308;2023-12-04T08:31:11;-1.80;99.90
17827;DHT22;9038;48.208;16.308;2023-12-04T08:33:13;-1.50;99.90
17827;DHT22;9038;48.208;16.308;2023-12-04T08:35:15;-1.50;99.90
17827;DHT22;9038;48.208;16.308;2023-12-04T08:37:18;-1.50;99.90
17827;DHT22;9038;48.208;16.308;2023-12-04T08:39:22;-1.50;99.90
17827;DHT22;9038;48.208;16.308;2023-12-04T08:41:24;-1.50;99.90
17827;DHT22;9038;48.208;16.308;2023-12-04T08:43:25;-1.40;99.90
17827;DHT22;9038;48.208;16.308;2023-12-04T08:45:29;-1.40;99.90
17827;DHT22;9038;48.208;16.308;2023-12-04T08:47:31;-1.20;99.90
17827;DHT22;9038;48.208;16.308;2023-12-04T08:49:34;-1.50;99.90
17827;DHT22;9038;48.208;16.308;2023-12-04T08:51:36;-1.50;99.90
17827;DHT22;9038;48.208;16.308;2023-12-04T08:53:38;-1.50;99.90
17827;DHT22;9038;48.208;16.308;2023-12-04T08:55:41;-1.70;99.90
17827;DHT22;9038;48.208;16.308;2023-12-04T08:57:43;-1.70;99.90
17827;DHT22;9038;48.208;16.308;2023-12-04T08:59:45;-1.60;99.90
17827;DHT22;9038;48.208;16.308;2023-12-04T09:01:46;-1.50;99.90
17827;DHT22;9038;48.208;16.308;2023-12-04T09:03:48;-1.50;99.90
17827;DHT22;9038;48.208;16.308;2023-12-04T09:05:50;-1.40;99.90
17827;DHT22;9038;48.208;16.308;2023-12-04T09:07:52;-1.40;99.90
17827;DHT22;9038;48.208;16.308;2023-12-04T09:09:54;-1.40;99.90
17827;DHT22;9038;48.208;16.308;2023-12-04T09:11:56;-1.30;99.90
17827;DHT22;9038;48.208;16.308;2023-12-04T09:13:58;-1.40;99.90
17827;DHT22;9038;48.208;16.308;2023-12-04T09:16:00;-1.40;99.90
17827;DHT22;9038;48.208;16.308;2023-12-04T09:18:00;-1.20;99.90
17827;DHT22;9038;48.208;16.308;2023-12-04T09:20:03;-1.30;99.90
17827;DHT22;9038;48.208;16.308;2023-12-04T09:22:06;-1.40;99.90
17827;DHT22;9038;48.208;16.308;2023-12-04T09:24:14;-1.40;99.90
17827;DHT22;9038;48.208;16.308;2023-12-04T09:26:16;-1.50;99.90
17827;DHT22;9038;48.208;16.308;2023-12-04T09:28:19;-1.50;99.90
17827;DHT22;9038;48.208;16.308;2023-12-04T09:30:21;-1.60;99.90
17827;DHT22;9038;48.208;16.308;2023-12-04T09:32:23;-1.60;99.90
17827;DHT22;9038;48.208;16.308;2023-12-04T09:34:25;-1.70;99.90
17827;DHT22;9038;48.208;16.308;2023-12-04T09:36:27;-1.60;99.90
17827;DHT22;9038;48.208;16.308;2023-12-04T09:38:30;-1.70;99.90
17827;DHT22;9038;48.208;16.308;2023-12-04T09:40:32;-1.70;99.90
17827;DHT22;9038;48.208;16.308;2023-12-04T09:42:34;-1.80;99.90
17827;DHT22;9038;48.208;16.308;2023-12-04T09:44:37;-1.90;99.90
17827;DHT22;9038;48.208;16.308;2023-12-04T09:46:39;-1.90;99.90
17827;DHT22;9038;48.208;16.308;2023-12-04T09:48:43;-1.80;99.90
17827;DHT22;9038;48.208;16.308;2023-12-04T09:50:47;-1.70;99.90
17827;DHT22;9038;48.208;16.308;2023-12-04T09:52:48;-1.80;99.90
17827;DHT22;9038;48.208;16.308;2023-12-04T09:54:51;-1.50;99.90
17827;DHT22;9038;48.208;16.308;2023-12-04T09:56:53;-1.30;99.90
17827;DHT22;9038;48.208;16.308;2023-12-04T09:58:59;-1.20;99.90
17827;DHT22;9038;48.208;16.308;2023-12-04T10:01:03;-1.10;99.90
17827;DHT22;9038;48.208;16.308;2023-12-04T10:03:06;-1.20;99.90
17827;DHT22;9038;48.208;16.308;2023-12-04T10:05:09;-1.10;99.90
17827;DHT22;9038;48.208;16.308;2023-12-04T10:07:11;-1.00;99.90
17827;DHT22;9038;48.208;16.308;2023-12-04T10:09:11;-1.00;99.90
17827;DHT22;9038;48.208;16.308;2023-12-04T10:11:14;-1.00;99.90
17827;DHT22;9038;48.208;16.308;2023-12-04T10:13:16;-1.00;99.90
17827;DHT22;9038;48.208;16.308;2023-12-04T10:15:18;-0.90;99.90
17827;DHT22;9038;48.208;16.308;2023-12-04T10:17:21;-0.90;99.90
17827;DHT22;9038;48.208;16.308;2023-12-04T10:19:24;-0.80;99.90
17827;DHT22;9038;48.208;16.308;2023-12-04T10:21:32;-0.60;99.90
17827;DHT22;9038;48.208;16.308;2023-12-04T10:23:38;-0.50;99.90
17827;DHT22;9038;48.208;16.308;2023-12-04T10:25:40;-0.20;99.90
17827;DHT22;9038;48.208;16.308;2023-12-04T10:27:42;-0.10;99.90
17827;DHT22;9038;48.208;16.308;2023-12-04T10:29:45;-0.20;99.90
17827;DHT22;9038;48.208;16.308;2023-12-04T10:31:47;-0.20;99.90
17827;DHT22;9038;48.208;16.308;2023-12-04T10:33:52;-0.20;99.90
17827;DHT22;9038;48.208;16.308;2023-12-04T10:35:55;0.00;99.90
17827;DHT22;9038;48.208;16.308;2023-12-04T10:37:57;0.20;99.90
17827;DHT22;9038;48.208;16.308;2023-12-04T10:40:00;0.40;99.90
17827;DHT22;9038;48.208;16.308;2023-12-04T10:42:02;0.50;99.90
17827;DHT22;9038;48.208;16.308;2023-12-04T10:44:04;0.50;99.90
17827;DHT22;9038;48.208;16.308;2023-12-04T10:46:05;0.60;99.90
17827;DHT22;9038;48.208;16.308;2023-12-04T10:48:08;0.60;99.90
17827;DHT22;9038;48.208;16.308;2023-12-04T10:50:12;0.80;99.90
17827;DHT22;9038;48.208;16.308;2023-12-04T10:52:13;0.90;99.90
17827;DHT22;9038;48.208;16.308;2023-12-04T11:17:14;1.80;99.90
17827;DHT22;9038;48.208;16.308;2023-12-04T11:19:20;2.00;99.90
17827;DHT22;9038;48.208;16.308;2023-12-04T11:21:25;2.00;99.90
17827;DHT22;9038;48.208;16.308;2023-12-04T11:23:30;2.10;99.90
17827;DHT22;9038;48.208;16.308;2023-12-04T11:25:33;2.20;99.90
17827;DHT22;9038;48.208;16.308;2023-12-04T11:27:36;2.30;99.90
17827;DHT22;9038;48.208;16.308;2023-12-04T11:29:38;2.40;99.90
17827;DHT22;9038;48.208;16.308;2023-12-04T11:31:40;2.40;99.90
17827;DHT22;9038;48.208;16.308;2023-12-04T11:33:42;2.60;99.90
17827;DHT22;9038;48.208;16.308;2023-12-04T11:35:45;2.80;99.90
17827;DHT22;9038;48.208;16.308;2023-12-04T11:37:48;3.20;99.90
